Time;durP1;ratioP1;P1;durP2;ratioP2;P2;SDS_P1;SDS_P2;PMS_P1;PMS_P2;Temp;Humidity;BMP_temperature;BMP_pressure;BME280_temperature;BME280_humidity;BME280_pressure;Samples;Min_cycle;Max_cycle;Signal;HPM_P1;HPM_P2
2023/06/07 00:02:23;;;;;;;7.47;5.40;;;16.80;72.10;;;;;;5008011;28;20193;-73
2023/06/07 00:04:48;;;;;;;7.73;5.73;;;16.80;72.10;;;;;;5008894;28;20432;-73
2023/06/07 00:07:14;;;;;;;8.00;6.17;;;16.70;72.10;;;;;;5006780;28;20213;-72
2023/06/07 00:09:40;;;;;;;7.07;4.80;;;16.60;72.60;;;;;;5007630;28;20187;-73
2023/06/07 00:12:06;;;;;;;10.50;6.40;;;16.60;72.70;;;;;;5005222;28;20205;-73
2023/06/07 00:14:32;;;;;;;9.40;6.10;;;16.60;72.90;;;;;;5011712;28;20273;-75
2023/06/07 00:16:58;;;;;;;8.03;6.00;;;16.50;72.90;;;;;;5005032;28;20877;-74
2023/06/07 00:19:25;;;;;;;8.73;5.83;;;16.50;73.00;;;;;;5007479;28;20425;-72
2023/06/07 00:21:54;;;;;;;13.00;6.53;;;16.50;73.20;;;;;;5003359;28;20310;-74
2023/06/07 00:24:20;;;;;;;8.30;6.23;;;16.40;73.30;;;;;;5010514;28;20430;-73
2023/06/07 00:26:46;;;;;;;9.67;6.30;;;16.30;73.50;;;;;;5009091;28;20480;-72
2023/06/07 00:29:13;;;;;;;6.90;5.37;;;16.30;73.60;;;;;;5006736;28;20413;-72
2023/06/07 00:31:39;;;;;;;11.57;6.53;;;16.30;73.70;;;;;;5002030;28;20298;-74
2023/06/07 00:34:05;;;;;;;7.50;6.50;;;16.30;73.70;;;;;;5009868;28;20427;-73
2023/06/07 00:36:32;;;;;;;10.70;6.13;;;16.30;73.90;;;;;;5010181;28;20428;-72
2023/06/07 00:38:58;;;;;;;8.60;6.70;;;16.30;73.90;;;;;;5011343;28;20190;-73
2023/06/07 00:41:23;;;;;;;6.20;5.83;;;16.30;73.90;;;;;;4999413;28;20468;-74
2023/06/07 00:43:49;;;;;;;8.80;6.70;;;16.30;74.00;;;;;;5007189;28;20444;-72
2023/06/07 00:46:18;;;;;;;10.53;6.63;;;16.20;74.00;;;;;;5010490;28;20206;-72
2023/06/07 00:48:45;;;;;;;9.20;6.43;;;16.10;74.30;;;;;;5010160;28;20204;-74
2023/06/07 00:51:11;;;;;;;11.60;6.37;;;16.10;74.30;;;;;;4996591;28;20515;-74
2023/06/07 00:53:37;;;;;;;7.80;7.10;;;16.10;74.50;;;;;;5006605;28;20997;-75
2023/06/07 00:56:05;;;;;;;7.70;6.50;;;16.00;74.60;;;;;;5004100;28;20420;-73
2023/06/07 00:58:32;;;;;;;10.07;7.10;;;15.90;74.90;;;;;;5010798;28;20425;-73
2023/06/07 01:01:00;;;;;;;9.30;6.13;;;15.90;75.20;;;;;;5005513;28;20464;-74
2023/06/07 01:03:27;;;;;;;10.37;6.53;;;15.90;75.40;;;;;;5010597;28;20424;-73
2023/06/07 01:05:53;;;;;;;9.13;6.53;;;15.90;74.90;;;;;;5007297;28;20471;-74
2023/06/07 01:08:20;;;;;;;8.63;6.40;;;15.80;75.10;;;;;;5010398;28;20920;-75
2023/06/07 01:10:46;;;;;;;13.00;7.30;;;15.80;75.40;;;;;;5006309;28;21038;-73
2023/06/07 01:13:14;;;;;;;11.70;6.93;;;15.70;75.70;;;;;;5009113;28;20479;-74
2023/06/07 01:15:40;;;;;;;8.13;5.83;;;15.60;75.70;;;;;;5008831;28;20426;-74
2023/06/07 01:18:09;;;;;;;8.20;6.77;;;15.60;76.20;;;;;;5008695;28;20586;-73
2023/06/07 01:20:37;;;;;;;11.23;7.13;;;15.50;76.40;;;;;;5006907;28;20491;-74
2023/06/07 01:23:05;;;;;;;11.10;6.30;;;15.50;76.80;;;;;;5008677;28;20440;-74
2023/06/07 01:25:31;;;;;;;11.40;6.93;;;15.50;77.00;;;;;;5007075;28;20435;-73
2023/06/07 01:27:58;;;;;;;9.43;6.47;;;15.50;77.00;;;;;;5007913;28;20492;-74
2023/06/07 01:30:25;;;;;;;7.80;6.97;;;15.50;77.10;;;;;;5007832;28;20215;-74
2023/06/07 01:32:51;;;;;;;8.43;6.57;;;15.50;77.40;;;;;;5004244;28;20517;-74
2023/06/07 01:35:18;;;;;;;11.43;7.47;;;15.50;77.60;;;;;;5003774;28;20417;-74
2023/06/07 01:37:46;;;;;;;11.43;7.30;;;15.50;77.60;;;;;;5005137;28;20442;-73
2023/06/07 01:40:13;;;;;;;11.13;7.10;;;15.40;77.70;;;;;;5004166;28;22315;-73
2023/06/07 01:42:39;;;;;;;9.47;7.10;;;15.40;77.70;;;;;;5004052;28;20427;-74
2023/06/07 01:45:09;;;;;;;10.90;7.83;;;15.30;78.00;;;;;;5008310;28;20433;-74
2023/06/07 01:47:35;;;;;;;7.70;6.30;;;15.30;78.10;;;;;;5005833;28;20209;-75
2023/06/07 01:50:00;;;;;;;10.97;6.73;;;15.30;78.30;;;;;;5005017;28;21200;-73
2023/06/07 01:52:27;;;;;;;10.27;7.20;;;15.30;78.30;;;;;;5007069;28;20193;-74
2023/06/07 01:54:53;;;;;;;10.93;7.17;;;15.20;78.40;;;;;;5011514;28;20208;-74
2023/06/07 01:57:38;;;;;;;10.50;6.77;;;15.20;78.00;;;;;;5008716;28;20424;-75
2023/06/07 02:00:26;;;;;;;11.10;7.00;;;15.20;77.70;;;;;;5007936;28;20454;-73
2023/06/07 02:02:57;;;;;;;11.87;7.33;;;15.20;78.30;;;;;;5004744;28;20466;-74
2023/06/07 02:05:31;;;;;;;14.03;7.37;;;15.10;78.70;;;;;;5007036;28;20426;-74
2023/06/07 02:08:01;;;;;;;7.70;6.10;;;15.10;78.90;;;;;;5006432;28;20553;-74
2023/06/07 02:10:29;;;;;;;11.23;7.60;;;15.10;78.90;;;;;;4998930;28;20466;-74
2023/06/07 02:12:57;;;;;;;8.50;6.53;;;15.10;78.10;;;;;;5007227;28;20432;-74
2023/06/07 02:15:23;;;;;;;12.40;7.17;;;15.10;78.10;;;;;;4999624;28;20556;-73
2023/06/07 02:18:02;;;;;;;9.40;7.07;;;14.90;78.10;;;;;;5003263;28;20512;-75
2023/06/07 02:20:30;;;;;;;9.43;7.20;;;14.80;78.90;;;;;;4996019;28;20219;-74
2023/06/07 02:22:56;;;;;;;9.67;7.17;;;14.70;79.20;;;;;;5004450;28;20419;-73
2023/06/07 02:25:25;;;;;;;9.63;7.57;;;14.70;79.70;;;;;;5004479;28;20537;-75
2023/06/07 02:27:51;;;;;;;10.40;7.93;;;14.70;80.30;;;;;;5005437;28;21041;-76
2023/06/07 02:30:17;;;;;;;9.90;7.13;;;14.60;80.60;;;;;;4999866;28;20468;-76
2023/06/07 02:32:48;;;;;;;11.97;8.03;;;14.60;80.80;;;;;;5007035;28;20486;-75
2023/06/07 02:35:18;;;;;;;8.93;6.70;;;14.60;80.90;;;;;;5003614;28;20198;-75
2023/06/07 02:37:44;;;;;;;11.37;8.23;;;14.60;80.80;;;;;;5010118;28;20434;-75
2023/06/07 02:40:10;;;;;;;9.90;7.60;;;14.60;80.90;;;;;;5007143;28;20444;-75
2023/06/07 02:42:36;;;;;;;10.80;7.83;;;14.60;80.90;;;;;;5008922;28;20441;-76
2023/06/07 02:45:03;;;;;;;8.87;7.60;;;14.60;81.10;;;;;;5010605;28;20428;-75
2023/06/07 02:47:30;;;;;;;9.03;7.00;;;14.60;80.80;;;;;;5007844;28;20527;-73
2023/06/07 02:49:56;;;;;;;11.10;7.20;;;14.70;80.30;;;;;;5008779;28;20493;-74
2023/06/07 02:52:22;;;;;;;11.63;7.27;;;14.70;79.50;;;;;;5009157;28;20511;-75
2023/06/07 02:54:48;;;;;;;8.43;7.73;;;14.70;79.60;;;;;;5014228;28;20982;-74
2023/06/07 02:57:14;;;;;;;9.33;7.50;;;14.60;79.60;;;;;;5013464;28;20429;-76
2023/06/07 02:59:41;;;;;;;10.20;7.10;;;14.50;79.60;;;;;;5011037;28;20193;-76
2023/06/07 03:02:06;;;;;;;8.70;7.07;;;14.40;80.20;;;;;;5006716;28;20212;-75
2023/06/07 03:04:32;;;;;;;10.33;7.63;;;14.40;80.60;;;;;;5008310;28;20425;-74
2023/06/07 03:06:58;;;;;;;13.23;7.60;;;14.50;80.90;;;;;;5015570;28;20195;-74
2023/06/07 03:09:24;;;;;;;11.20;8.77;;;14.50;81.10;;;;;;5017505;28;21135;-74
2023/06/07 03:11:50;;;;;;;8.63;7.10;;;14.40;81.40;;;;;;5016463;28;20491;-75
2023/06/07 03:14:19;;;;;;;10.37;6.93;;;14.50;80.90;;;;;;5019584;28;20460;-75
2023/06/07 03:16:45;;;;;;;11.43;8.10;;;14.50;80.30;;;;;;5016628;28;20200;-74
2023/06/07 03:19:11;;;;;;;10.43;7.03;;;14.50;80.00;;;;;;5019408;28;20441;-75
2023/06/07 03:21:44;;;;;;;13.20;7.50;;;14.40;80.00;;;;;;5016773;28;20496;-75
2023/06/07 03:24:11;;;;;;;10.10;7.97;;;14.40;80.20;;;;;;5005253;28;20995;-75
2023/06/07 03:26:36;;;;;;;9.47;7.60;;;14.30;80.20;;;;;;5012515;28;20998;-74
2023/06/07 03:29:02;;;;;;;11.00;7.53;;;14.30;81.10;;;;;;5007710;28;20425;-72
2023/06/07 03:31:28;;;;;;;12.67;8.30;;;14.20;81.70;;;;;;5008738;28;20202;-75
2023/06/07 03:33:54;;;;;;;13.40;8.10;;;14.20;82.20;;;;;;5010840;28;20210;-75
2023/06/07 03:36:25;;;;;;;13.00;8.37;;;14.20;82.40;;;;;;5011920;28;20465;-73
2023/06/07 03:38:52;;;;;;;11.50;8.23;;;14.20;82.70;;;;;;5010751;28;20457;-72
2023/06/07 03:41:18;;;;;;;11.20;8.77;;;14.20;82.80;;;;;;5007753;28;20555;-74
2023/06/07 03:43:43;;;;;;;9.03;7.60;;;14.10;83.00;;;;;;5012677;28;20515;-74
2023/06/07 03:46:09;;;;;;;10.27;7.63;;;14.20;82.50;;;;;;5012950;28;20263;-75
2023/06/07 03:48:36;;;;;;;11.00;7.60;;;14.20;81.50;;;;;;5013845;28;20278;-74
2023/06/07 03:51:02;;;;;;;11.83;8.40;;;14.20;80.80;;;;;;5011009;28;20213;-75
2023/06/07 03:53:27;;;;;;;9.93;7.80;;;14.10;80.90;;;;;;5012650;28;20523;-75
2023/06/07 03:55:53;;;;;;;11.67;8.10;;;14.00;81.20;;;;;;5010149;28;20273;-76
2023/06/07 03:58:19;;;;;;;11.40;8.20;;;13.90;81.90;;;;;;5013544;28;20664;-77
2023/06/07 04:00:47;;;;;;;9.50;7.43;;;13.80;82.40;;;;;;5007713;28;20449;-76
2023/06/07 04:03:13;;;;;;;11.60;8.70;;;13.80;82.40;;;;;;5015196;28;20242;-75
2023/06/07 04:05:38;;;;;;;10.77;8.10;;;13.90;82.50;;;;;;5018472;28;21025;-74
2023/06/07 04:08:06;;;;;;;12.13;8.40;;;13.90;82.80;;;;;;5021309;28;20495;-74
2023/06/07 04:10:32;;;;;;;12.60;8.13;;;13.90;83.10;;;;;;5016863;28;21301;-76
2023/06/07 04:12:58;;;;;;;9.77;8.53;;;13.90;83.60;;;;;;5020618;28;20433;-75
2023/06/07 04:15:23;;;;;;;12.63;8.37;;;14.00;83.70;;;;;;5020235;28;20444;-76
2023/06/07 04:17:49;;;;;;;12.87;9.50;;;14.00;83.80;;;;;;5019978;28;20189;-76
2023/06/07 04:20:14;;;;;;;12.13;8.57;;;14.00;84.00;;;;;;5010132;28;20609;-77
2023/06/07 04:22:41;;;;;;;11.90;8.80;;;14.10;84.00;;;;;;5005635;28;20231;-75
2023/06/07 04:25:07;;;;;;;10.57;8.03;;;14.30;83.70;;;;;;5012158;28;20194;-76
2023/06/07 04:27:34;;;;;;;11.50;8.40;;;14.40;83.40;;;;;;5012285;28;20471;-75
2023/06/07 04:30:02;;;;;;;10.73;8.13;;;14.40;80.90;;;;;;5006660;28;20471;-76
2023/06/07 04:32:28;;;;;;;10.67;7.00;;;14.40;80.50;;;;;;5008750;28;20451;-76
2023/06/07 04:34:55;;;;;;;14.13;7.47;;;14.50;79.50;;;;;;5010624;28;20521;-76
2023/06/07 04:37:21;;;;;;;10.60;7.83;;;14.60;79.20;;;;;;5011367;28;20826;-77
2023/06/07 04:39:48;;;;;;;10.60;7.70;;;14.50;79.20;;;;;;5010982;28;20434;-75
2023/06/07 04:42:16;;;;;;;11.43;8.87;;;14.50;79.50;;;;;;5004781;28;20452;-76
2023/06/07 04:44:42;;;;;;;10.23;7.67;;;14.50;79.70;;;;;;5010037;28;20438;-72
2023/06/07 04:47:09;;;;;;;10.40;7.80;;;14.60;79.60;;;;;;5007864;28;20521;-74
2023/06/07 04:49:35;;;;;;;11.20;8.67;;;14.70;79.00;;;;;;5007121;28;20459;-73
2023/06/07 04:52:02;;;;;;;12.10;8.23;;;14.70;78.90;;;;;;5004422;28;20483;-74
2023/06/07 04:54:31;;;;;;;12.67;8.63;;;14.70;79.20;;;;;;5007417;28;20416;-73
2023/06/07 04:56:58;;;;;;;12.27;9.50;;;14.70;79.30;;;;;;5006310;28;20535;-73
2023/06/07 04:59:24;;;;;;;13.07;8.70;;;14.80;79.20;;;;;;5006860;28;20542;-74
2023/06/07 05:01:51;;;;;;;11.57;8.53;;;14.90;79.30;;;;;;5005209;28;21073;-74
2023/06/07 05:04:16;;;;;;;8.97;8.37;;;14.90;78.70;;;;;;5006025;28;20916;-74
2023/06/07 05:06:42;;;;;;;14.63;9.53;;;15.10;78.60;;;;;;5007213;28;20475;-73
2023/06/07 05:09:08;;;;;;;17.43;9.90;;;15.20;78.40;;;;;;5001360;28;20186;-74
2023/06/07 05:11:34;;;;;;;14.00;9.90;;;15.30;78.30;;;;;;5006513;28;20460;-74
2023/06/07 05:14:00;;;;;;;15.60;11.97;;;15.40;78.30;;;;;;5008069;28;20190;-73
2023/06/07 05:16:25;;;;;;;12.03;9.93;;;15.50;78.10;;;;;;5007225;28;20703;-74
2023/06/07 05:18:53;;;;;;;14.53;11.00;;;15.50;78.60;;;;;;5008421;28;20217;-74
2023/06/07 05:21:18;;;;;;;24.23;11.27;;;15.70;78.10;;;;;;5006964;28;20631;-74
2023/06/07 05:23:44;;;;;;;15.53;11.60;;;15.90;77.60;;;;;;5005097;28;20471;-74
2023/06/07 05:26:10;;;;;;;14.70;10.30;;;16.00;77.30;;;;;;5007228;28;20195;-73
2023/06/07 05:28:36;;;;;;;15.20;11.33;;;15.90;77.40;;;;;;5002797;28;20309;-73
2023/06/07 05:31:02;;;;;;;13.30;10.70;;;16.00;76.80;;;;;;5003575;28;20528;-74
2023/06/07 05:33:28;;;;;;;19.07;11.13;;;15.90;77.10;;;;;;5005699;28;20241;-75
2023/06/07 05:35:54;;;;;;;14.93;11.00;;;16.00;77.00;;;;;;5009570;28;20428;-75
2023/06/07 05:38:20;;;;;;;15.50;11.60;;;16.10;76.50;;;;;;5005376;28;20432;-73
2023/06/07 05:40:46;;;;;;;14.83;10.97;;;16.10;76.20;;;;;;5005849;28;20461;-74
2023/06/07 05:43:11;;;;;;;17.00;11.87;;;16.20;76.40;;;;;;5008121;28;20428;-73
2023/06/07 05:45:40;;;;;;;17.73;11.50;;;16.30;76.10;;;;;;5014226;28;20189;-73
2023/06/07 05:48:05;;;;;;;17.43;11.00;;;16.40;75.80;;;;;;5013636;28;20222;-75
2023/06/07 05:50:31;;;;;;;15.90;12.13;;;16.50;75.70;;;;;;4999289;28;20473;-74
2023/06/07 05:52:57;;;;;;;18.47;11.40;;;16.40;75.20;;;;;;5010836;28;20185;-74
2023/06/07 05:55:27;;;;;;;18.37;12.07;;;16.50;75.50;;;;;;5010174;28;20196;-75
2023/06/07 05:58:03;;;;;;;18.13;13.30;;;16.60;75.10;;;;;;5003779;28;20447;-73
2023/06/07 06:00:29;;;;;;;23.90;12.67;;;16.60;74.90;;;;;;5000965;28;20471;-73
2023/06/07 06:02:56;;;;;;;18.73;12.57;;;16.60;74.80;;;;;;5009782;28;20425;-74
2023/06/07 06:05:27;;;;;;;26.93;12.80;;;16.60;75.10;;;;;;5004596;28;20209;-73
2023/06/07 06:07:53;;;;;;;16.40;11.17;;;16.70;74.90;;;;;;5013715;28;20468;-74
2023/06/07 06:10:19;;;;;;;17.83;11.40;;;16.60;74.80;;;;;;5018580;28;21090;-74
2023/06/07 06:12:44;;;;;;;19.03;12.37;;;16.50;75.40;;;;;;5020164;28;20459;-73
2023/06/07 06:15:10;;;;;;;16.97;12.07;;;16.30;75.90;;;;;;5010867;28;20665;-74
2023/06/07 06:17:36;;;;;;;17.30;11.90;;;16.50;75.80;;;;;;5010245;28;20220;-72
2023/06/07 06:20:02;;;;;;;18.03;12.57;;;16.50;75.10;;;;;;5012213;28;20445;-73
2023/06/07 06:22:27;;;;;;;18.80;12.83;;;16.50;75.50;;;;;;5013620;28;20259;-74
2023/06/07 06:24:53;;;;;;;20.80;14.00;;;16.60;75.40;;;;;;5014142;28;20845;-74
2023/06/07 06:27:20;;;;;;;19.57;13.27;;;16.50;75.20;;;;;;5011167;28;20206;-73
2023/06/07 06:29:46;;;;;;;17.93;12.73;;;16.40;75.70;;;;;;5012170;28;20181;-74
2023/06/07 06:32:14;;;;;;;22.87;13.80;;;16.60;75.20;;;;;;5009723;28;20498;-73
2023/06/07 06:34:40;;;;;;;16.80;11.80;;;16.70;74.90;;;;;;5010596;28;20189;-75
2023/06/07 06:37:06;;;;;;;15.80;10.80;;;16.60;75.20;;;;;;5010927;28;21319;-73
2023/06/07 06:39:32;;;;;;;14.37;9.80;;;16.80;75.10;;;;;;5009033;28;20245;-74
2023/06/07 06:41:58;;;;;;;12.80;10.30;;;16.90;74.60;;;;;;5002190;28;20209;-73
2023/06/07 06:44:23;;;;;;;19.00;12.13;;;17.00;74.20;;;;;;5015679;28;20505;-75
2023/06/07 06:46:49;;;;;;;16.53;12.10;;;16.90;74.20;;;;;;5015862;28;20233;-75
2023/06/07 06:49:15;;;;;;;17.43;11.40;;;17.00;74.30;;;;;;5014689;28;20180;-75
2023/06/07 06:51:41;;;;;;;12.47;8.47;;;17.20;73.90;;;;;;5009979;28;20701;-73
2023/06/07 06:54:06;;;;;;;12.77;9.30;;;17.30;73.60;;;;;;5005738;28;20430;-74
2023/06/07 06:56:32;;;;;;;15.30;9.30;;;17.40;73.30;;;;;;5010189;28;20230;-74
2023/06/07 06:58:57;;;;;;;19.53;11.27;;;17.60;73.00;;;;;;5009070;28;20225;-75
2023/06/07 07:01:23;;;;;;;18.23;11.10;;;17.70;72.60;;;;;;5009117;28;20282;-75
2023/06/07 07:03:48;;;;;;;14.50;10.10;;;17.50;72.90;;;;;;5007288;28;20744;-74
2023/06/07 07:06:16;;;;;;;13.43;9.53;;;17.60;72.90;;;;;;5007694;28;20217;-75
2023/06/07 07:08:42;;;;;;;14.67;9.03;;;17.60;72.60;;;;;;5011264;28;20183;-72
2023/06/07 07:11:07;;;;;;;13.00;9.00;;;17.60;72.90;;;;;;5010582;28;21094;-73
2023/06/07 07:13:33;;;;;;;15.53;9.07;;;17.80;72.30;;;;;;5009640;28;20184;-73
2023/06/07 07:15:58;;;;;;;13.77;9.30;;;17.80;72.40;;;;;;5008513;28;20194;-73
2023/06/07 07:18:24;;;;;;;10.83;7.70;;;17.90;72.30;;;;;;5011643;28;20251;-75
2023/06/07 07:20:50;;;;;;;10.60;7.77;;;18.00;72.10;;;;;;5006079;28;20557;-75
2023/06/07 07:23:17;;;;;;;12.00;8.47;;;18.10;72.00;;;;;;5010142;28;20781;-75
2023/06/07 07:25:43;;;;;;;15.27;8.10;;;18.20;71.40;;;;;;5009166;28;20238;-74
2023/06/07 07:28:08;;;;;;;11.83;7.97;;;18.00;72.00;;;;;;5007347;28;20475;-75
2023/06/07 07:30:34;;;;;;;14.90;8.00;;;17.90;72.40;;;;;;5004300;28;20317;-74
2023/06/07 07:33:00;;;;;;;11.57;8.17;;;17.90;72.70;;;;;;5004494;28;20199;-73
2023/06/07 07:35:26;;;;;;;12.93;8.03;;;18.10;72.10;;;;;;5008941;28;20279;-73
2023/06/07 07:37:53;;;;;;;11.47;6.90;;;18.30;71.70;;;;;;5006578;28;20536;-73
2023/06/07 07:40:19;;;;;;;9.53;6.53;;;18.40;70.70;;;;;;5005425;28;20222;-73
2023/06/07 07:42:45;;;;;;;11.70;6.77;;;18.40;70.50;;;;;;5003986;28;20436;-74
2023/06/07 07:45:11;;;;;;;7.97;5.97;;;18.40;70.40;;;;;;5011196;28;20427;-74
2023/06/07 07:47:37;;;;;;;7.97;6.50;;;18.20;71.30;;;;;;5006810;28;20492;-73
2023/06/07 07:50:04;;;;;;;8.90;6.47;;;18.20;71.00;;;;;;5006989;28;20427;-73
2023/06/07 07:52:30;;;;;;;9.33;6.60;;;18.40;70.80;;;;;;5007256;28;20244;-75
2023/06/07 07:54:56;;;;;;;9.57;6.00;;;18.70;70.20;;;;;;5012554;28;20818;-76
2023/06/07 07:57:21;;;;;;;9.10;6.20;;;18.80;69.70;;;;;;5008236;28;20505;-73
2023/06/07 07:59:47;;;;;;;8.73;6.57;;;19.00;69.50;;;;;;5012279;28;20247;-73
2023/06/07 08:02:12;;;;;;;6.53;5.90;;;19.10;69.10;;;;;;5004772;28;20319;-74
2023/06/07 08:04:38;;;;;;;12.70;5.30;;;19.20;68.50;;;;;;5007768;28;20588;-73
2023/06/07 08:07:04;;;;;;;6.37;5.00;;;19.30;68.50;;;;;;5010312;28;20213;-75
2023/06/07 08:09:29;;;;;;;8.27;5.07;;;19.40;67.90;;;;;;5009690;28;20202;-74
2023/06/07 08:11:55;;;;;;;7.50;6.07;;;19.30;67.60;;;;;;5002470;28;20297;-74
2023/06/07 08:14:20;;;;;;;11.03;6.17;;;19.30;67.60;;;;;;5008350;28;20209;-73
2023/06/07 08:16:47;;;;;;;8.60;6.27;;;19.10;68.20;;;;;;5005963;28;20591;-72
2023/06/07 08:19:13;;;;;;;7.60;5.63;;;19.10;68.60;;;;;;5007223;28;20620;-74
2023/06/07 08:21:38;;;;;;;7.77;6.20;;;19.30;68.30;;;;;;5005178;28;20469;-73
2023/06/07 08:24:05;;;;;;;6.50;5.20;;;19.50;67.70;;;;;;5010145;28;20432;-74
2023/06/07 08:26:30;;;;;;;6.23;5.23;;;19.60;67.20;;;;;;5002890;28;20221;-75
2023/06/07 08:28:56;;;;;;;9.67;5.67;;;19.70;67.30;;;;;;5005408;28;20936;-75
2023/06/07 08:31:27;;;;;;;12.30;6.40;;;19.80;67.20;;;;;;5001498;28;20207;-74
2023/06/07 08:33:52;;;;;;;7.30;4.50;;;19.80;67.00;;;;;;5014249;28;20197;-75
2023/06/07 08:36:18;;;;;;;5.00;4.40;;;19.80;66.70;;;;;;5012019;28;20433;-75
2023/06/07 08:38:43;;;;;;;5.07;4.30;;;19.70;65.40;;;;;;5011595;28;20194;-75
2023/06/07 08:41:10;;;;;;;8.03;5.50;;;19.60;66.60;;;;;;5002635;28;20208;-76
2023/06/07 08:43:37;;;;;;;6.10;5.23;;;19.70;66.40;;;;;;5010606;28;20258;-74
2023/06/07 08:46:04;;;;;;;8.63;5.90;;;19.50;66.00;;;;;;5005193;28;20939;-75
2023/06/07 08:48:32;;;;;;;6.07;4.80;;;19.70;66.30;;;;;;5010185;28;20427;-73
2023/06/07 08:51:01;;;;;;;7.00;4.93;;;19.80;66.60;;;;;;5005164;28;20498;-74
2023/06/07 08:53:37;;;;;;;5.53;4.40;;;19.70;66.30;;;;;;5011034;28;20417;-73
2023/06/07 08:56:03;;;;;;;5.43;4.30;;;19.70;65.70;;;;;;5009667;28;20436;-72
2023/06/07 08:58:28;;;;;;;8.50;4.53;;;19.90;65.40;;;;;;5012838;28;20425;-74
2023/06/07 09:00:58;;;;;;;5.70;4.50;;;20.00;65.60;;;;;;5004477;28;20474;-75
2023/06/07 09:03:24;;;;;;;5.40;4.20;;;20.10;65.80;;;;;;5010050;28;20190;-74
2023/06/07 09:05:54;;;;;;;4.47;3.57;;;20.20;65.30;;;;;;5011028;28;20463;-74
2023/06/07 09:08:20;;;;;;;6.10;3.80;;;20.30;63.70;;;;;;5011217;28;20481;-74
2023/06/07 09:10:46;;;;;;;8.30;4.23;;;20.40;63.50;;;;;;5007430;28;20550;-72
2023/06/07 09:13:16;;;;;;;5.57;3.97;;;20.70;63.80;;;;;;5007044;28;20195;-75
2023/06/07 09:15:43;;;;;;;5.80;3.90;;;20.80;64.20;;;;;;5009211;28;20268;-75
2023/06/07 09:18:08;;;;;;;6.27;4.60;;;21.00;64.40;;;;;;5008371;28;20447;-75
2023/06/07 09:20:35;;;;;;;5.67;3.90;;;21.20;62.80;;;;;;5005676;28;20513;-74
2023/06/07 09:23:08;;;;;;;3.83;3.70;;;21.30;62.30;;;;;;5006650;28;20199;-74
2023/06/07 09:25:37;;;;;;;4.63;3.80;;;21.50;61.90;;;;;;5008049;28;20446;-74
2023/06/07 09:28:07;;;;;;;5.80;3.63;;;21.50;61.50;;;;;;5007519;28;20840;-73
2023/06/07 09:30:33;;;;;;;4.93;3.73;;;21.20;62.60;;;;;;5001196;28;20542;-74
2023/06/07 09:32:59;;;;;;;4.20;3.80;;;21.40;62.00;;;;;;5001197;28;20508;-74
2023/06/07 09:35:25;;;;;;;5.03;4.00;;;21.60;61.90;;;;;;5005998;28;20210;-75
2023/06/07 09:37:52;;;;;;;5.03;3.50;;;21.60;61.70;;;;;;5007459;28;20207;-75
2023/06/07 09:40:18;;;;;;;4.80;3.90;;;21.50;61.50;;;;;;5007899;28;20692;-75
2023/06/07 09:42:44;;;;;;;6.70;3.37;;;21.70;61.20;;;;;;5009541;28;20850;-76
2023/06/07 09:45:14;;;;;;;7.30;3.83;;;21.90;61.00;;;;;;5005298;28;20186;-75
2023/06/07 09:47:42;;;;;;;5.00;3.40;;;21.80;61.50;;;;;;5007087;28;20987;-75
2023/06/07 09:50:12;;;;;;;5.60;4.17;;;22.10;60.90;;;;;;5010774;28;20497;-74
2023/06/07 09:52:38;;;;;;;6.70;4.20;;;22.20;60.70;;;;;;5011400;28;20443;-74
2023/06/07 09:55:08;;;;;;;5.57;3.50;;;22.30;60.30;;;;;;5010474;28;20418;-74
2023/06/07 09:57:37;;;;;;;4.33;3.27;;;22.40;59.90;;;;;;5009454;28;20447;-76
2023/06/07 10:00:14;;;;;;;6.70;3.97;;;22.40;60.10;;;;;;5008813;28;20506;-75
2023/06/07 10:02:44;;;;;;;4.17;3.27;;;21.80;61.70;;;;;;5010185;28;20475;-74
2023/06/07 10:05:12;;;;;;;4.07;3.10;;;21.60;62.20;;;;;;5005307;28;20428;-75
2023/06/07 10:07:44;;;;;;;4.87;2.90;;;21.10;63.20;;;;;;5008786;28;20883;-73
2023/06/07 10:10:11;;;;;;;5.93;3.43;;;21.40;63.10;;;;;;5008148;28;20423;-75
2023/06/07 10:12:42;;;;;;;5.17;3.50;;;21.90;61.70;;;;;;5006366;28;20589;-75
2023/06/07 10:15:10;;;;;;;5.00;3.33;;;22.30;60.00;;;;;;5002586;28;20528;-74
2023/06/07 10:18:02;;;;;;;4.00;3.07;;;22.20;60.10;;;;;;5007224;28;20474;-76
2023/06/07 10:20:35;;;;;;;5.40;3.10;;;22.20;60.10;;;;;;5006118;28;20498;-74
2023/06/07 10:23:06;;;;;;;4.80;3.47;;;22.60;59.20;;;;;;5009851;28;20435;-75
2023/06/07 10:25:41;;;;;;;5.30;3.33;;;23.20;57.40;;;;;;5015526;28;20431;-75
2023/06/07 10:28:15;;;;;;;6.33;3.43;;;23.60;55.80;;;;;;5014090;28;20657;-75
2023/06/07 10:30:51;;;;;;;4.50;3.20;;;23.50;55.70;;;;;;5005210;28;20505;-76
2023/06/07 10:33:17;;;;;;;4.50;3.57;;;22.60;58.80;;;;;;5004524;28;20413;-73
2023/06/07 10:35:44;;;;;;;6.17;4.10;;;23.50;57.00;;;;;;5010966;28;20422;-75
2023/06/07 10:38:11;;;;;;;4.90;3.63;;;24.10;55.20;;;;;;5010595;28;20445;-75
2023/06/07 10:40:37;;;;;;;11.33;4.47;;;24.40;54.00;;;;;;5003405;28;20461;-74
2023/06/07 10:43:03;;;;;;;5.57;4.40;;;24.50;54.10;;;;;;5012836;28;20450;-74
2023/06/07 10:45:29;;;;;;;4.53;3.73;;;24.00;55.70;;;;;;5009948;28;20191;-74
2023/06/07 10:47:55;;;;;;;5.33;4.23;;;23.60;57.40;;;;;;5008656;28;20836;-73
2023/06/07 10:50:26;;;;;;;5.10;3.90;;;23.90;57.00;;;;;;5006525;28;20283;-73
2023/06/07 10:53:02;;;;;;;5.10;3.80;;;24.30;55.30;;;;;;5008454;28;20239;-73
2023/06/07 10:55:32;;;;;;;5.00;3.80;;;23.50;56.90;;;;;;5007247;28;20450;-76
2023/06/07 10:57:59;;;;;;;4.17;3.93;;;23.60;56.60;;;;;;5007127;28;20423;-73
2023/06/07 11:00:31;;;;;;;3.50;3.27;;;24.10;55.70;;;;;;5005170;28;21046;-74
2023/06/07 11:03:15;;;;;;;4.37;3.30;;;23.90;56.40;;;;;;5006171;28;20435;-75
2023/06/07 11:05:53;;;;;;;5.33;3.60;;;24.30;53.20;;;;;;5003606;28;20466;-74
2023/06/07 11:08:30;;;;;;;7.13;3.90;;;24.30;53.80;;;;;;5012157;28;20469;-75
2023/06/07 11:10:59;;;;;;;5.23;3.77;;;24.50;53.20;;;;;;5007621;28;20457;-76
2023/06/07 11:14:05;;;;;;;4.30;3.40;;;23.70;55.60;;;;;;5007118;28;20421;-74
2023/06/07 11:16:31;;;;;;;4.90;3.70;;;23.80;55.00;;;;;;4993157;28;20495;-73
2023/06/07 11:19:02;;;;;;;4.50;3.77;;;24.00;54.60;;;;;;5006349;28;20416;-75
2023/06/07 11:21:27;;;;;;;6.50;4.50;;;23.60;55.40;;;;;;5009440;28;20240;-73
2023/06/07 11:24:10;;;;;;;4.20;3.63;;;23.20;56.80;;;;;;5014240;28;20444;-75
2023/06/07 11:26:35;;;;;;;6.10;3.53;;;23.50;56.60;;;;;;5011973;28;20201;-72
2023/06/07 11:29:02;;;;;;;5.33;4.30;;;23.90;55.70;;;;;;5013408;28;20464;-75
2023/06/07 11:31:28;;;;;;;4.20;3.60;;;24.10;54.20;;;;;;5003927;28;20289;-74
2023/06/07 11:33:53;;;;;;;4.63;3.50;;;24.50;54.90;;;;;;5013128;28;20454;-74
2023/06/07 11:36:20;;;;;;;3.70;3.40;;;25.20;53.60;;;;;;5012573;28;20191;-74
2023/06/07 11:38:49;;;;;;;4.57;3.67;;;25.70;51.80;;;;;;5016834;28;20207;-75
2023/06/07 11:41:15;;;;;;;5.67;4.13;;;25.30;52.10;;;;;;5007542;28;20496;-74
2023/06/07 11:43:41;;;;;;;4.80;3.83;;;24.00;54.20;;;;;;5012540;28;20425;-75
2023/06/07 11:46:06;;;;;;;5.80;3.67;;;23.60;55.60;;;;;;5011582;28;20528;-75
2023/06/07 11:48:32;;;;;;;5.43;3.80;;;24.10;54.80;;;;;;5012523;28;20220;-75
2023/06/07 11:50:59;;;;;;;4.10;3.50;;;24.20;54.80;;;;;;5012550;28;20215;-75
2023/06/07 11:53:28;;;;;;;3.83;3.23;;;24.70;52.90;;;;;;5009729;28;20674;-74
2023/06/07 11:55:55;;;;;;;6.63;3.33;;;25.30;52.00;;;;;;5012448;28;20422;-73
2023/06/07 11:58:22;;;;;;;4.10;3.73;;;24.80;53.00;;;;;;5015514;28;21027;-75
2023/06/07 12:00:49;;;;;;;5.30;3.57;;;24.10;54.00;;;;;;5009313;28;21040;-74
2023/06/07 12:03:16;;;;;;;4.37;3.50;;;24.70;53.00;;;;;;5012988;28;20423;-73
2023/06/07 12:05:44;;;;;;;4.67;3.80;;;25.00;51.80;;;;;;5004347;28;20420;-73
2023/06/07 12:08:13;;;;;;;3.83;3.50;;;24.60;52.60;;;;;;5012357;28;20553;-75
2023/06/07 12:10:39;;;;;;;3.70;3.50;;;24.30;52.00;;;;;;5011751;28;20453;-73
2023/06/07 12:13:18;;;;;;;3.63;3.37;;;24.50;52.10;;;;;;5011290;28;20501;-74
2023/06/07 12:15:54;;;;;;;4.33;3.43;;;24.30;51.80;;;;;;5012489;28;20563;-75
2023/06/07 12:18:26;;;;;;;6.70;3.83;;;24.00;52.60;;;;;;5010281;28;21043;-73
2023/06/07 12:21:11;;;;;;;4.17;3.40;;;24.50;51.80;;;;;;5009982;28;20454;-74
2023/06/07 12:23:44;;;;;;;3.33;3.20;;;24.80;53.40;;;;;;5013267;28;20424;-74
2023/06/07 12:26:14;;;;;;;4.27;3.70;;;25.30;52.60;;;;;;5014604;28;20433;-74
2023/06/07 12:28:42;;;;;;;4.07;3.53;;;24.60;53.60;;;;;;5013444;28;20438;-75
2023/06/07 12:31:26;;;;;;;4.17;3.53;;;25.00;53.00;;;;;;5007875;28;20834;-75
2023/06/07 12:34:01;;;;;;;4.13;3.47;;;24.70;54.10;;;;;;5009798;28;20521;-75
2023/06/07 12:36:30;;;;;;;4.27;3.67;;;25.00;53.70;;;;;;5011280;28;20431;-73
2023/06/07 12:39:08;;;;;;;5.70;3.47;;;25.40;51.70;;;;;;5009442;28;20918;-74
2023/06/07 12:41:36;;;;;;;4.70;3.40;;;25.30;51.60;;;;;;5008921;28;20971;-74
2023/06/07 12:44:03;;;;;;;5.30;3.67;;;25.80;50.10;;;;;;5010314;28;20431;-74